createdAt,value
2018-05-03T00:00:13.808Z,3.70
2018-05-03T00:01:13.841Z,3.90
2018-05-03T00:02:13.876Z,3.60
2018-05-03T00:03:13.906Z,3.80
2018-05-03T00:04:13.943Z,3.60
2018-05-03T00:05:13.969Z,3.40
2018-05-03T00:06:14.003Z,3.80
2018-05-03T00:07:14.040Z,3.60
2018-05-03T00:08:14.068Z,3.60
2018-05-03T00:09:14.099Z,3.60
2018-05-03T00:10:14.135Z,3.60
2018-05-03T00:11:14.165Z,3.70
2018-05-03T00:12:14.201Z,3.50
2018-05-03T00:13:14.230Z,3.80
2018-05-03T00:14:14.262Z,3.30
2018-05-03T00:15:14.293Z,3.40
2018-05-03T00:16:14.327Z,3.60
2018-05-03T00:17:14.358Z,3.30
2018-05-03T00:18:14.393Z,3.70
2018-05-03T00:19:14.426Z,3.60
2018-05-03T00:20:14.457Z,3.50
2018-05-03T00:21:14.489Z,3.70
2018-05-03T00:22:14.522Z,3.60
2018-05-03T00:23:14.554Z,3.30
2018-05-03T00:24:14.586Z,3.40
2018-05-03T00:25:14.618Z,3.70
2018-05-03T00:26:14.651Z,3.50
2018-05-03T00:27:14.686Z,3.40
2018-05-03T00:28:14.717Z,3.60
2018-05-03T00:29:14.748Z,3.20
2018-05-03T00:30:14.780Z,3.50
2018-05-03T00:31:14.815Z,3.40
2018-05-03T00:32:14.861Z,3.40
2018-05-03T00:33:14.879Z,3.40
2018-05-03T00:34:14.910Z,3.30
2018-05-03T00:35:14.943Z,3.50
2018-05-03T00:36:14.980Z,3.50
2018-05-03T00:37:15.021Z,3.60
2018-05-03T00:38:15.040Z,3.20
2018-05-03T00:39:15.073Z,3.50
2018-05-03T00:40:15.106Z,3.40
2018-05-03T00:41:15.138Z,3.30
2018-05-03T00:42:15.173Z,3.70
2018-05-03T00:43:15.203Z,3.10
2018-05-03T00:44:15.237Z,3.50
2018-05-03T00:45:15.267Z,3.30
2018-05-03T00:46:15.301Z,3.80
2018-05-03T00:47:15.333Z,3.20
2018-05-03T00:48:15.365Z,3.50
2018-05-03T00:49:15.397Z,3.30
2018-05-03T00:50:15.432Z,3.20
2018-05-03T00:51:15.463Z,3.00
2018-05-03T00:52:15.495Z,3.40
2018-05-03T00:53:15.527Z,3.70
2018-05-03T00:54:15.563Z,3.80
2018-05-03T00:55:15.601Z,3.40
2018-05-03T00:56:15.625Z,3.40
2018-05-03T00:57:15.656Z,3.80
2018-05-03T00:58:15.689Z,3.20
2018-05-03T00:59:15.722Z,3.70
2018-05-03T01:00:15.756Z,3.60
2018-05-03T01:01:15.786Z,3.30
2018-05-03T01:02:15.819Z,3.40
2018-05-03T01:03:15.851Z,3.40
2018-05-03T01:04:15.886Z,3.40
2018-05-03T01:05:15.917Z,3.60
2018-05-03T01:06:15.950Z,3.70
2018-05-03T01:07:15.984Z,3.20
2018-05-03T01:08:16.018Z,3.50
2018-05-03T01:09:16.048Z,3.30
2018-05-03T01:10:16.080Z,3.40
2018-05-03T01:11:16.113Z,3.00
2018-05-03T01:12:16.145Z,3.10
2018-05-03T01:13:16.180Z,3.50
2018-05-03T01:14:16.208Z,3.20
2018-05-03T01:15:16.242Z,3.20
2018-05-03T01:16:16.275Z,3.50
2018-05-03T01:17:16.310Z,3.40
2018-05-03T01:18:16.340Z,3.40
2018-05-03T01:19:16.372Z,3.10
2018-05-03T01:20:16.406Z,3.60
2018-05-03T01:21:16.438Z,3.40
2018-05-03T01:22:16.492Z,3.00
2018-05-03T01:23:16.502Z,3.60
2018-05-03T01:24:16.534Z,3.30
2018-05-03T01:25:16.567Z,3.20
2018-05-03T01:26:16.601Z,3.50
2018-05-03T01:27:16.631Z,3.40
2018-05-03T01:28:16.665Z,3.60
2018-05-03T01:29:16.694Z,3.40
2018-05-03T01:30:16.729Z,3.10
2018-05-03T01:31:16.761Z,3.40
2018-05-03T01:32:16.794Z,3.20
2018-05-03T01:33:16.827Z,3.50
2018-05-03T01:34:16.858Z,3.20
2018-05-03T01:35:16.892Z,3.20
2018-05-03T01:36:16.926Z,3.40
2018-05-03T01:37:16.958Z,3.20
2018-05-03T01:38:16.989Z,3.30
2018-05-03T01:39:17.021Z,3.20
2018-05-03T01:40:17.062Z,3.10
2018-05-03T01:41:17.086Z,3.20
2018-05-03T01:42:17.138Z,3.40
2018-05-03T01:43:17.153Z,3.30
2018-05-03T01:44:17.185Z,3.30
2018-05-03T01:45:17.220Z,3.20
2018-05-03T01:46:17.249Z,3.20
2018-05-03T01:47:17.280Z,2.90
2018-05-03T01:48:17.315Z,3.20
2018-05-03T01:49:17.346Z,3.30
2018-05-03T01:50:17.380Z,3.20
2018-05-03T01:51:17.411Z,3.10
2018-05-03T01:52:17.443Z,3.20
2018-05-03T01:53:17.481Z,3.20
2018-05-03T01:54:17.509Z,3.20
2018-05-03T01:55:17.541Z,3.20
2018-05-03T01:56:17.576Z,3.20
2018-05-03T01:57:17.609Z,3.00
2018-05-03T01:58:17.638Z,3.40
2018-05-03T02:01:43.348Z,3.30
2018-05-03T02:02:43.380Z,3.00
2018-05-03T02:04:36.414Z,3.00
2018-05-03T02:05:36.434Z,3.30
2018-05-03T02:07:29.989Z,3.40
2018-05-03T02:08:30.006Z,3.10
2018-05-03T02:10:23.558Z,3.40
2018-05-03T02:11:23.577Z,3.40
2018-05-03T02:13:17.124Z,3.20
2018-05-03T02:14:17.149Z,3.20
2018-05-03T02:16:10.696Z,2.90
2018-05-03T02:17:10.717Z,3.30
2018-05-03T02:19:04.299Z,3.00
2018-05-03T02:20:04.326Z,3.30
2018-05-03T02:21:57.935Z,3.20
2018-05-03T02:22:57.861Z,3.00
2018-05-03T02:24:50.917Z,3.20
2018-05-03T02:25:50.915Z,3.10
2018-05-03T02:27:44.465Z,3.10
2018-05-03T02:28:44.522Z,3.10
2018-05-03T02:30:38.144Z,3.00
2018-05-03T02:31:38.055Z,3.20
2018-05-03T02:33:31.649Z,2.90
2018-05-03T02:34:31.681Z,3.10
2018-05-03T02:36:25.209Z,3.20
2018-05-03T02:37:25.236Z,3.30
2018-05-03T02:39:18.842Z,3.20
2018-05-03T02:40:18.772Z,3.20
2018-05-03T02:42:12.445Z,3.20
2018-05-03T02:43:12.358Z,3.00
2018-05-03T02:45:05.908Z,3.10
2018-05-03T02:46:05.934Z,2.90
2018-05-03T02:47:59.487Z,3.00
2018-05-03T02:48:59.486Z,3.30
2018-05-03T02:50:53.038Z,2.90
2018-05-03T02:51:53.070Z,3.20
2018-05-03T02:53:46.603Z,3.00
2018-05-03T02:54:46.631Z,2.90
2018-05-03T02:56:40.172Z,2.80
2018-05-03T02:57:40.201Z,2.80
2018-05-03T02:59:33.738Z,3.00
2018-05-03T03:00:33.761Z,3.00
2018-05-03T03:02:27.337Z,3.00
2018-05-03T03:03:27.336Z,3.30
2018-05-03T03:05:20.885Z,2.80
2018-05-03T03:06:20.905Z,2.90
2018-05-03T03:08:14.458Z,2.90
2018-05-03T03:09:14.498Z,2.70
2018-05-03T03:11:08.023Z,2.90
2018-05-03T03:12:08.046Z,3.00
2018-05-03T03:14:01.593Z,2.80
2018-05-03T03:15:01.613Z,3.00
2018-05-03T03:16:55.170Z,3.00
2018-05-03T03:17:55.184Z,2.90
2018-05-03T03:19:48.754Z,3.00
2018-05-03T03:20:48.755Z,3.00
2018-05-03T03:21:48.791Z,3.10
2018-05-03T03:22:48.818Z,3.10
2018-05-03T03:23:48.852Z,3.00
2018-05-03T03:24:48.885Z,2.80
2018-05-03T03:25:48.921Z,3.00
2018-05-03T03:26:48.953Z,3.10
2018-05-03T03:27:48.986Z,2.80
2018-05-03T03:28:49.014Z,2.80
2018-05-03T03:29:49.046Z,3.20
2018-05-03T03:30:49.078Z,3.10
2018-05-03T03:31:49.115Z,3.20
2018-05-03T03:32:49.146Z,2.90
2018-05-03T03:33:49.176Z,2.90
2018-05-03T03:34:49.207Z,3.00
2018-05-03T03:35:49.244Z,3.10
2018-05-03T03:36:49.272Z,3.00
2018-05-03T03:37:49.307Z,2.60
2018-05-03T03:38:49.345Z,2.90
2018-05-03T03:39:49.370Z,2.70
2018-05-03T03:40:49.436Z,2.80
2018-05-03T03:41:49.438Z,2.60
2018-05-03T03:42:49.479Z,2.80
2018-05-03T03:43:49.504Z,2.80
2018-05-03T03:44:49.532Z,3.10
2018-05-03T03:45:49.569Z,3.10
2018-05-03T03:46:49.599Z,2.90
2018-05-03T03:47:49.723Z,2.70
2018-05-03T03:48:49.664Z,2.90
2018-05-03T03:49:49.700Z,2.80
2018-05-03T03:50:49.727Z,2.70
2018-05-03T03:51:49.758Z,2.60
2018-05-03T03:52:49.795Z,2.80
2018-05-03T03:53:49.824Z,2.90
2018-05-03T03:54:49.861Z,2.80
2018-05-03T03:55:49.896Z,2.70
2018-05-03T03:56:49.924Z,2.60
2018-05-03T03:57:49.953Z,2.80
2018-05-03T03:58:49.987Z,2.70
2018-05-03T03:59:50.022Z,2.70
2018-05-03T04:00:50.055Z,3.00
2018-05-03T04:01:50.084Z,2.50
2018-05-03T04:02:50.115Z,2.70
2018-05-03T04:03:50.149Z,2.70
2018-05-03T04:04:50.185Z,2.80
2018-05-03T04:05:50.218Z,2.60
2018-05-03T04:06:50.244Z,2.90
2018-05-03T04:07:50.278Z,2.70
2018-05-03T04:08:50.309Z,3.10
2018-05-03T04:09:50.347Z,2.80
2018-05-03T04:10:50.375Z,2.70
2018-05-03T04:11:50.411Z,2.80
2018-05-03T04:12:50.438Z,2.90
2018-05-03T04:13:50.472Z,3.10
2018-05-03T04:14:50.505Z,2.90
2018-05-03T04:15:50.542Z,2.70
2018-05-03T04:16:50.572Z,2.70
2018-05-03T04:17:50.602Z,2.50
2018-05-03T04:18:50.636Z,2.70
2018-05-03T04:19:50.670Z,2.60
2018-05-03T04:20:50.701Z,2.80
2018-05-03T04:21:50.733Z,2.80
2018-05-03T04:22:50.764Z,2.80
2018-05-03T04:23:50.800Z,2.90
2018-05-03T04:24:50.836Z,2.80
2018-05-03T04:25:50.867Z,2.70
2018-05-03T04:26:50.898Z,2.60
2018-05-03T04:27:50.927Z,2.80
2018-05-03T04:28:50.963Z,2.60
2018-05-03T04:29:50.996Z,2.80
2018-05-03T04:30:51.026Z,2.80
2018-05-03T04:31:51.062Z,2.70
2018-05-03T04:32:51.089Z,2.60
2018-05-03T04:33:51.122Z,2.90
2018-05-03T04:34:51.153Z,2.50
2018-05-03T04:35:51.190Z,2.50
2018-05-03T04:36:51.220Z,2.50
2018-05-03T04:37:51.256Z,2.70
2018-05-03T04:38:51.282Z,2.60
2018-05-03T04:39:51.321Z,2.80
2018-05-03T04:40:51.351Z,2.90
2018-05-03T04:41:51.384Z,2.70
2018-05-03T04:42:51.412Z,3.00
2018-05-03T04:43:51.449Z,2.60
2018-05-03T04:44:51.477Z,2.50
2018-05-03T04:45:51.511Z,2.80
2018-05-03T04:46:51.589Z,3.00
2018-05-03T04:47:51.574Z,3.10
2018-05-03T04:48:51.615Z,2.70
2018-05-03T04:49:51.639Z,2.90
2018-05-03T04:50:51.672Z,2.60
2018-05-03T04:51:51.709Z,2.90
2018-05-03T04:52:51.737Z,2.70
2018-05-03T04:53:51.774Z,3.00
2018-05-03T04:54:51.805Z,2.90
2018-05-03T04:55:51.831Z,3.10
2018-05-03T04:56:51.934Z,3.00
2018-05-03T04:57:51.899Z,2.80
2018-05-03T04:58:51.931Z,3.10
2018-05-03T04:59:51.963Z,3.00
2018-05-03T05:00:52.000Z,2.90
2018-05-03T05:01:52.029Z,2.70
2018-05-03T05:02:52.063Z,3.20
2018-05-03T05:03:52.092Z,2.80
2018-05-03T05:04:52.133Z,3.20
2018-05-03T05:05:52.157Z,3.00
2018-05-03T05:06:52.194Z,2.60
2018-05-03T05:07:52.224Z,2.90
2018-05-03T05:08:52.257Z,3.00
2018-05-03T05:09:52.288Z,2.70
2018-05-03T05:10:52.319Z,2.50
2018-05-03T05:11:52.352Z,2.70
2018-05-03T05:12:52.394Z,2.70
2018-05-03T05:13:52.419Z,2.70
2018-05-03T05:14:52.454Z,3.00
2018-05-03T05:15:52.484Z,2.70
2018-05-03T05:16:52.515Z,2.70
2018-05-03T05:17:52.577Z,2.80
2018-05-03T05:18:52.583Z,2.90
2018-05-03T05:19:52.608Z,3.00
2018-05-03T05:20:52.826Z,3.00
2018-05-03T05:21:52.764Z,3.00
2018-05-03T05:22:52.708Z,3.50
2018-05-03T05:23:52.793Z,3.30
2018-05-03T05:24:52.777Z,2.90
2018-05-03T05:25:52.812Z,3.60
2018-05-03T05:26:52.846Z,3.20
2018-05-03T05:27:52.869Z,4.00
2018-05-03T05:28:52.903Z,3.80
2018-05-03T05:29:52.936Z,3.40
2018-05-03T05:30:52.972Z,3.00
2018-05-03T05:31:53.001Z,3.20
2018-05-03T05:32:53.038Z,3.60
2018-05-03T05:33:53.067Z,3.50
2018-05-03T05:34:53.099Z,3.20
2018-05-03T05:35:53.132Z,3.60
2018-05-03T05:36:53.165Z,3.80
2018-05-03T05:37:53.193Z,3.80
2018-05-03T05:38:53.259Z,4.90
2018-05-03T05:39:53.265Z,5.20
2018-05-03T05:40:53.300Z,4.40
2018-05-03T05:41:53.327Z,4.70
2018-05-03T05:42:53.359Z,4.50
2018-05-03T05:43:53.390Z,4.60
2018-05-03T05:44:53.422Z,4.40
2018-05-03T05:45:53.467Z,5.00
2018-05-03T05:46:53.491Z,4.40
2018-05-03T05:47:53.526Z,4.60
2018-05-03T05:48:53.557Z,4.00
2018-05-03T05:49:54.239Z,3.70
2018-05-03T05:50:53.723Z,4.10
2018-05-03T05:52:47.187Z,4.00
2018-05-03T05:53:47.199Z,3.70
2018-05-03T05:55:40.754Z,3.90
2018-05-03T05:56:40.791Z,4.00
2018-05-03T05:58:34.321Z,3.70
2018-05-03T05:59:34.343Z,3.70
2018-05-03T06:01:27.889Z,3.90
2018-05-03T06:02:27.914Z,3.70
2018-05-03T06:04:21.014Z,4.10
2018-05-03T06:05:20.992Z,4.00
2018-05-03T06:07:14.519Z,3.80
2018-05-03T06:08:14.542Z,3.80
2018-05-03T06:09:14.578Z,11.80
2018-05-03T06:10:14.686Z,14.70
2018-05-03T06:11:14.641Z,21.40
2018-05-03T06:12:14.742Z,22.40
2018-05-03T06:13:14.708Z,17.50
2018-05-03T06:14:14.735Z,18.30
2018-05-03T06:15:14.768Z,22.60
2018-05-03T06:17:08.369Z,22.80
2018-05-03T06:18:08.269Z,21.70
2018-05-03T06:20:01.820Z,19.30
2018-05-03T06:21:01.834Z,19.00
2018-05-03T06:22:55.386Z,18.50
2018-05-03T06:23:55.405Z,17.20
2018-05-03T06:25:48.948Z,16.70
2018-05-03T06:26:48.975Z,15.30
2018-05-03T06:28:42.525Z,14.20
2018-05-03T06:29:42.549Z,14.00
2018-05-03T06:31:36.096Z,13.40
2018-05-03T06:32:36.120Z,13.00
2018-05-03T06:34:29.724Z,11.80
2018-05-03T06:35:29.809Z,11.60
2018-05-03T06:37:23.238Z,11.20
2018-05-03T06:38:23.257Z,10.30
2018-05-03T06:40:16.806Z,10.90
2018-05-03T06:41:16.827Z,10.30
2018-05-03T06:43:14.496Z,10.10
2018-05-03T06:44:14.605Z,9.70
2018-05-03T06:46:08.048Z,9.30
2018-05-03T06:47:08.061Z,9.50
2018-05-03T06:48:08.102Z,8.70
2018-05-03T06:49:08.130Z,7.90
2018-05-03T06:50:08.163Z,8.40
2018-05-03T06:51:08.195Z,8.00
2018-05-03T06:52:08.227Z,7.90
2018-05-03T06:53:08.262Z,8.10
2018-05-03T06:54:08.296Z,7.50
2018-05-03T06:55:08.325Z,7.30
2018-05-03T06:56:08.436Z,7.10
2018-05-03T06:57:08.401Z,7.70
2018-05-03T06:58:08.422Z,6.50
2018-05-03T06:59:08.454Z,6.90
2018-05-03T07:00:08.699Z,6.30
2018-05-03T07:01:08.522Z,6.70
2018-05-03T07:02:08.562Z,6.30
2018-05-03T07:03:08.586Z,5.90
2018-05-03T07:04:08.693Z,6.10
2018-05-03T07:05:08.657Z,6.40
2018-05-03T07:06:08.687Z,5.70
2018-05-03T07:07:08.720Z,5.80
2018-05-03T07:08:08.754Z,5.60
2018-05-03T07:09:08.789Z,5.70
2018-05-03T07:10:08.816Z,5.80
2018-05-03T07:11:08.879Z,5.50
2018-05-03T07:12:08.879Z,5.80
2018-05-03T07:13:08.915Z,5.80
2018-05-03T07:14:08.950Z,6.30
2018-05-03T07:15:08.983Z,5.10
2018-05-03T07:16:09.011Z,5.20
2018-05-03T07:17:09.043Z,5.40
2018-05-03T07:18:09.076Z,5.20
2018-05-03T07:19:09.110Z,5.30
2018-05-03T07:20:09.145Z,5.40
2018-05-03T07:21:09.177Z,5.20
2018-05-03T07:22:09.209Z,5.30
2018-05-03T07:23:09.240Z,5.30
2018-05-03T07:24:09.274Z,5.00
2018-05-03T07:25:09.316Z,4.90
2018-05-03T07:26:09.339Z,5.30
2018-05-03T07:27:09.373Z,4.80
2018-05-03T07:28:09.402Z,4.50
2018-05-03T07:29:09.446Z,4.70
2018-05-03T07:30:09.466Z,4.60
2018-05-03T07:31:09.499Z,4.60
2018-05-03T07:32:09.536Z,5.00
2018-05-03T07:33:09.563Z,4.40
2018-05-03T07:34:09.598Z,5.00
2018-05-03T07:35:09.629Z,4.50
2018-05-03T07:36:09.663Z,4.70
2018-05-03T07:37:09.696Z,4.50
2018-05-03T07:38:09.728Z,4.60
2018-05-03T07:39:09.765Z,4.50
2018-05-03T07:40:09.793Z,4.70
2018-05-03T07:41:09.826Z,4.80
2018-05-03T07:42:09.862Z,5.00
2018-05-03T07:43:09.892Z,4.40
2018-05-03T07:44:09.923Z,4.40
2018-05-03T07:45:09.960Z,4.70
2018-05-03T07:47:03.474Z,4.50
2018-05-03T07:48:03.488Z,4.60
2018-05-03T07:49:57.038Z,4.60
2018-05-03T07:50:57.062Z,4.20
2018-05-03T07:52:50.644Z,4.30
2018-05-03T07:53:50.630Z,4.50
2018-05-03T07:55:44.637Z,4.10
2018-05-03T07:56:44.290Z,4.00
2018-05-03T07:58:37.757Z,4.00
2018-05-03T07:59:37.770Z,4.30
2018-05-03T08:01:31.347Z,4.30
2018-05-03T08:02:31.365Z,4.30
2018-05-03T08:04:24.898Z,4.00
2018-05-03T08:05:24.915Z,3.90
2018-05-03T08:07:18.479Z,4.20
2018-05-03T08:08:18.507Z,3.80
2018-05-03T08:10:12.035Z,4.20
2018-05-03T08:11:12.056Z,4.00
2018-05-03T08:13:05.728Z,4.00
2018-05-03T08:14:05.622Z,4.10
2018-05-03T08:17:34.918Z,4.10
2018-05-03T08:18:34.940Z,3.90
2018-05-03T08:20:28.497Z,3.70
2018-05-03T08:21:28.509Z,4.10
2018-05-03T08:23:22.084Z,4.10
2018-05-03T08:24:22.077Z,4.10
2018-05-03T08:26:15.629Z,3.90
2018-05-03T08:27:15.650Z,4.30
2018-05-03T08:29:09.203Z,4.50
2018-05-03T08:30:09.223Z,4.50
2018-05-03T08:32:02.899Z,4.50
2018-05-03T08:33:02.786Z,4.90
2018-05-03T08:34:02.823Z,4.60
2018-05-03T08:35:02.852Z,4.50
2018-05-03T08:36:02.889Z,4.30
2018-05-03T08:37:02.923Z,4.80
2018-05-03T08:38:02.974Z,4.00
2018-05-03T08:39:02.984Z,4.40
2018-05-03T08:40:03.017Z,3.90
2018-05-03T08:41:03.719Z,4.60
2018-05-03T08:42:03.081Z,4.10
2018-05-03T08:43:56.700Z,4.60
2018-05-03T08:44:56.634Z,4.30
2018-05-03T08:46:50.184Z,4.30
2018-05-03T08:47:50.205Z,4.60
2018-05-03T08:49:43.239Z,4.10
2018-05-03T08:50:43.262Z,4.40
2018-05-03T08:52:36.814Z,4.60
2018-05-03T08:53:36.831Z,4.40
2018-05-03T08:54:36.863Z,4.90
2018-05-03T08:55:36.984Z,4.90
2018-05-03T08:56:36.931Z,5.00
2018-05-03T08:57:36.964Z,4.70
2018-05-03T08:58:36.990Z,4.50
2018-05-03T08:59:37.029Z,4.60
2018-05-03T09:00:37.097Z,4.80
2018-05-03T09:01:37.173Z,4.30
2018-05-03T09:02:37.126Z,5.10
2018-05-03T09:03:37.160Z,4.60
2018-05-03T09:04:37.208Z,4.70
2018-05-03T09:05:37.221Z,4.50
2018-05-03T09:06:37.252Z,5.20
2018-05-03T09:07:37.423Z,5.00
2018-05-03T09:08:37.321Z,4.80
2018-05-03T09:09:37.354Z,4.70
2018-05-03T09:10:37.383Z,4.90
2018-05-03T09:11:37.461Z,4.80
2018-05-03T09:12:37.452Z,4.80
2018-05-03T09:13:37.480Z,4.90
2018-05-03T09:14:37.513Z,4.60
2018-05-03T09:15:37.548Z,4.90
2018-05-03T09:16:37.581Z,4.80
2018-05-03T09:17:37.609Z,4.90
2018-05-03T09:18:37.646Z,5.40
2018-05-03T09:19:37.675Z,5.00
2018-05-03T09:20:37.710Z,4.80
2018-05-03T09:21:37.738Z,5.20
2018-05-03T09:22:37.776Z,4.80
2018-05-03T09:23:37.821Z,5.40
2018-05-03T09:24:37.833Z,5.10
2018-05-03T09:25:37.872Z,4.90
2018-05-03T09:26:37.959Z,5.10
2018-05-03T09:27:37.940Z,5.50
2018-05-03T09:28:37.965Z,4.50
2018-05-03T09:29:38.038Z,5.00
2018-05-03T09:30:38.031Z,5.30
2018-05-03T09:31:38.062Z,5.20
2018-05-03T09:32:38.090Z,5.20
2018-05-03T09:33:38.128Z,5.10
2018-05-03T09:34:38.163Z,5.20
2018-05-03T09:35:38.191Z,4.90
2018-05-03T09:36:38.223Z,5.10
2018-05-03T09:37:38.256Z,5.00
2018-05-03T09:38:38.293Z,5.50
2018-05-03T09:39:38.373Z,5.50
2018-05-03T09:40:38.357Z,5.10
2018-05-03T09:41:38.389Z,5.00
2018-05-03T09:42:38.418Z,4.50
2018-05-03T09:43:38.454Z,5.20
2018-05-03T09:44:38.486Z,5.40
2018-05-03T09:45:38.529Z,5.20
2018-05-03T09:46:38.579Z,4.60
2018-05-03T09:47:38.596Z,5.10
2018-05-03T09:48:38.666Z,5.00
2018-05-03T09:49:38.659Z,4.70
2018-05-03T09:50:38.678Z,5.00
2018-05-03T09:51:38.709Z,5.30
2018-05-03T09:52:38.744Z,4.70
2018-05-03T09:53:38.772Z,4.80
2018-05-03T09:54:38.810Z,5.10
2018-05-03T09:55:38.838Z,5.60
2018-05-03T09:56:38.878Z,5.60
2018-05-03T09:57:38.941Z,5.30
2018-05-03T09:58:38.986Z,5.40
2018-05-03T09:59:38.972Z,5.30
2018-05-03T10:00:39.000Z,5.10
2018-05-03T10:01:39.035Z,4.90
2018-05-03T10:02:39.068Z,5.10
2018-05-03T10:03:39.101Z,5.00
2018-05-03T10:04:39.132Z,5.00
2018-05-03T10:05:39.207Z,4.90
2018-05-03T10:06:39.200Z,4.50
2018-05-03T10:07:39.231Z,4.70
2018-05-03T10:08:39.260Z,5.00
2018-05-03T10:09:39.295Z,4.50
2018-05-03T10:10:39.328Z,4.80
2018-05-03T10:11:39.363Z,4.70
2018-05-03T10:12:39.390Z,4.70
2018-05-03T10:13:39.423Z,4.50
2018-05-03T10:14:39.529Z,4.90
2018-05-03T10:15:39.491Z,4.40
2018-05-03T10:16:39.524Z,4.70
2018-05-03T10:17:39.555Z,4.50
2018-05-03T10:18:39.588Z,4.50
2018-05-03T10:19:39.617Z,4.70
2018-05-03T10:20:39.654Z,4.60
2018-05-03T10:21:39.682Z,4.80
2018-05-03T10:22:39.733Z,4.50
2018-05-03T10:23:39.747Z,4.90
2018-05-03T10:24:39.783Z,4.80
2018-05-03T10:25:39.811Z,4.60
2018-05-03T10:26:39.845Z,4.40
2018-05-03T10:27:39.875Z,4.50
2018-05-03T10:28:40.768Z,4.80
2018-05-03T10:29:39.942Z,4.70
2018-05-03T10:33:06.122Z,4.60
2018-05-03T10:34:05.706Z,4.40
2018-05-03T10:35:59.291Z,4.70
2018-05-03T10:36:59.288Z,4.50
2018-05-03T10:38:52.834Z,4.50
2018-05-03T10:39:52.855Z,4.20
2018-05-03T10:41:46.406Z,4.10
2018-05-03T10:42:46.426Z,4.80
2018-05-03T10:44:39.976Z,4.90
2018-05-03T10:45:39.994Z,4.40
2018-05-03T10:47:33.546Z,4.20
2018-05-03T10:48:33.570Z,4.40
2018-05-03T10:50:27.117Z,4.30
2018-05-03T10:51:27.212Z,4.50
2018-05-03T10:53:20.692Z,4.70
2018-05-03T10:54:20.711Z,4.40
2018-05-03T10:56:14.262Z,4.50
2018-05-03T10:57:14.288Z,4.80
2018-05-03T10:59:08.288Z,5.10
2018-05-03T11:00:07.848Z,4.60
2018-05-03T11:02:01.397Z,4.20
2018-05-03T11:03:01.418Z,4.30
2018-05-03T11:04:54.965Z,4.40
2018-05-03T11:05:54.986Z,4.30
2018-05-03T11:07:48.541Z,4.60
2018-05-03T11:08:48.558Z,4.60
2018-05-03T11:10:42.109Z,4.90
2018-05-03T11:11:42.129Z,4.20
2018-05-03T11:13:35.679Z,4.10
2018-05-03T11:14:35.702Z,4.00
2018-05-03T11:16:29.254Z,4.60
2018-05-03T11:17:29.272Z,4.90
2018-05-03T11:19:22.820Z,4.70
2018-05-03T11:20:22.846Z,4.70
2018-05-03T11:22:16.395Z,4.50
2018-05-03T11:23:16.416Z,4.70
2018-05-03T11:25:09.961Z,4.40
2018-05-03T11:26:09.988Z,4.30
2018-05-03T11:28:03.535Z,4.60
2018-05-03T11:29:03.555Z,4.20
2018-05-03T11:30:57.101Z,4.40
2018-05-03T11:31:57.127Z,4.70
2018-05-03T11:33:50.680Z,4.60
2018-05-03T11:34:50.697Z,4.70
2018-05-03T11:36:44.335Z,5.10
2018-05-03T11:37:44.263Z,5.20
2018-05-03T11:39:37.813Z,5.70
2018-05-03T11:40:37.835Z,5.90
2018-05-03T11:42:31.384Z,6.10
2018-05-03T11:43:31.404Z,6.20
2018-05-03T11:45:24.953Z,6.50
2018-05-03T11:46:24.974Z,6.40
2018-05-03T11:48:18.527Z,6.60
2018-05-03T11:49:18.548Z,6.20
2018-05-03T11:51:12.100Z,6.40
2018-05-03T11:52:12.116Z,6.50
2018-05-03T11:54:05.699Z,6.20
2018-05-03T11:55:05.685Z,6.00
2018-05-03T11:56:59.245Z,6.50
2018-05-03T11:57:59.268Z,6.70
2018-05-03T11:59:52.846Z,6.40
2018-05-03T12:00:52.831Z,6.50
2018-05-03T12:02:46.461Z,6.30
2018-05-03T12:03:46.422Z,6.30
2018-05-03T12:05:40.017Z,6.50
2018-05-03T12:06:39.990Z,6.70
2018-05-03T12:08:33.527Z,6.60
2018-05-03T12:09:33.537Z,6.00
2018-05-03T12:11:27.125Z,6.90
2018-05-03T12:12:27.107Z,6.80
2018-05-03T12:14:20.657Z,5.90
2018-05-03T12:15:20.681Z,6.30
2018-05-03T12:16:20.714Z,6.50
2018-05-03T12:17:20.743Z,7.10
2018-05-03T12:18:20.775Z,7.10
2018-05-03T12:19:20.808Z,6.50
2018-05-03T12:20:20.841Z,6.40
2018-05-03T12:21:20.876Z,6.20
2018-05-03T12:22:20.909Z,6.40
2018-05-03T12:23:20.951Z,6.50
2018-05-03T12:24:21.043Z,6.70
2018-05-03T12:25:21.002Z,6.30
2018-05-03T12:26:21.047Z,6.60
2018-05-03T12:27:21.068Z,6.10
2018-05-03T12:28:21.099Z,6.10
2018-05-03T12:29:21.136Z,6.10
2018-05-03T12:30:21.176Z,6.30
2018-05-03T12:31:21.197Z,5.90
2018-05-03T12:32:21.232Z,5.60
2018-05-03T12:33:21.266Z,5.60
2018-05-03T12:34:21.292Z,6.30
2018-05-03T12:35:21.328Z,6.20
2018-05-03T12:36:21.363Z,6.70
2018-05-03T12:37:21.390Z,6.00
2018-05-03T12:38:21.418Z,5.90
2018-05-03T12:39:21.457Z,6.20
2018-05-03T12:40:21.493Z,6.00
2018-05-03T12:41:21.513Z,5.60
2018-05-03T12:42:21.553Z,6.70
2018-05-03T12:43:21.590Z,6.10
2018-05-03T12:44:21.619Z,5.80
2018-05-03T12:45:21.680Z,5.90
2018-05-03T12:46:21.687Z,6.00
2018-05-03T12:47:21.723Z,6.40
2018-05-03T12:48:21.748Z,5.70
2018-05-03T12:49:21.780Z,5.70
2018-05-03T12:50:21.832Z,5.70
2018-05-03T12:51:21.852Z,5.40
2018-05-03T12:52:21.877Z,5.40
2018-05-03T12:53:21.911Z,6.00
2018-05-03T12:54:21.942Z,5.90
2018-05-03T12:55:21.974Z,5.40
2018-05-03T12:56:22.017Z,5.40
2018-05-03T12:57:22.040Z,5.10
2018-05-03T12:58:22.086Z,5.40
2018-05-03T12:59:22.104Z,5.60
2018-05-03T13:00:22.224Z,5.60
2018-05-03T13:01:22.182Z,5.50
2018-05-03T13:02:22.206Z,5.30
2018-05-03T13:03:22.234Z,5.60
2018-05-03T13:04:22.265Z,5.60
2018-05-03T13:05:22.352Z,5.20
2018-05-03T13:06:22.334Z,5.50
2018-05-03T13:07:22.368Z,5.60
2018-05-03T13:08:22.397Z,5.80
2018-05-03T13:09:22.425Z,5.40
2018-05-03T13:10:22.462Z,5.40
2018-05-03T13:11:22.494Z,5.40
2018-05-03T13:12:22.526Z,5.20
2018-05-03T13:13:22.566Z,5.30
2018-05-03T13:14:22.615Z,5.00
2018-05-03T13:15:22.642Z,5.20
2018-05-03T13:16:22.750Z,5.70
2018-05-03T13:17:22.692Z,4.90
2018-05-03T13:18:22.720Z,5.00
2018-05-03T13:19:22.759Z,4.90
2018-05-03T13:20:22.785Z,5.10
2018-05-03T13:21:22.817Z,5.10
2018-05-03T13:22:22.851Z,5.30
2018-05-03T13:23:22.893Z,5.20
2018-05-03T13:24:22.920Z,4.90
2018-05-03T13:25:22.947Z,4.70
2018-05-03T13:26:22.983Z,4.90
2018-05-03T13:27:23.016Z,5.20
2018-05-03T13:28:23.045Z,4.80
2018-05-03T13:29:23.074Z,4.70
2018-05-03T13:30:23.108Z,4.80
2018-05-03T13:31:23.146Z,4.60
2018-05-03T13:32:23.181Z,4.20
2018-05-03T13:33:23.273Z,4.70
2018-05-03T13:34:23.250Z,4.70
2018-05-03T13:35:23.276Z,4.60
2018-05-03T13:36:23.317Z,5.10
2018-05-03T13:37:23.338Z,4.60
2018-05-03T13:38:23.371Z,4.50
2018-05-03T13:39:23.407Z,4.40
2018-05-03T13:40:23.434Z,4.30
2018-05-03T13:41:23.465Z,4.10
2018-05-03T13:42:23.504Z,4.50
2018-05-03T13:43:23.533Z,4.60
2018-05-03T13:44:23.569Z,4.50
2018-05-03T13:45:23.595Z,4.70
2018-05-03T13:46:23.647Z,4.40
2018-05-03T13:47:23.666Z,4.60
2018-05-03T13:48:23.693Z,4.20
2018-05-03T13:49:23.729Z,4.40
2018-05-03T13:50:23.766Z,4.40
2018-05-03T13:51:23.871Z,4.80
2018-05-03T13:52:23.870Z,4.20
2018-05-03T13:53:23.863Z,4.50
2018-05-03T13:54:23.898Z,4.30
2018-05-03T13:55:23.921Z,4.80
2018-05-03T13:56:23.957Z,4.20
2018-05-03T13:57:23.989Z,4.10
2018-05-03T13:58:24.019Z,4.30
2018-05-03T13:59:24.057Z,4.40
2018-05-03T14:00:24.138Z,4.30
2018-05-03T14:01:24.115Z,4.60
2018-05-03T14:02:24.148Z,4.10
2018-05-03T14:03:24.184Z,4.20
2018-05-03T14:04:24.215Z,4.30
2018-05-03T14:05:24.275Z,4.40
2018-05-03T14:06:24.329Z,4.90
2018-05-03T14:07:24.387Z,4.50
2018-05-03T14:08:24.346Z,4.40
2018-05-03T14:09:24.378Z,3.70
2018-05-03T14:10:24.407Z,4.50
2018-05-03T14:11:24.445Z,4.30
2018-05-03T14:12:24.473Z,4.20
2018-05-03T14:13:24.509Z,4.30
2018-05-03T14:14:24.539Z,4.50
2018-05-03T14:15:24.571Z,4.50
2018-05-03T14:16:24.619Z,4.50
2018-05-03T14:17:24.640Z,4.40
2018-05-03T14:18:24.672Z,4.40
2018-05-03T14:19:24.700Z,4.30
2018-05-03T14:20:24.732Z,4.30
2018-05-03T14:21:24.765Z,4.00
2018-05-03T14:22:24.796Z,4.00
2018-05-03T14:23:24.835Z,4.10
2018-05-03T14:24:24.862Z,4.30
2018-05-03T14:25:24.895Z,4.40
2018-05-03T14:26:24.931Z,4.30
2018-05-03T14:27:24.958Z,4.20
2018-05-03T14:28:24.992Z,4.20
2018-05-03T14:29:25.028Z,4.50
2018-05-03T14:30:25.057Z,4.00
2018-05-03T14:31:25.094Z,4.60
2018-05-03T14:32:25.122Z,4.10
2018-05-03T14:33:25.159Z,4.30
2018-05-03T14:34:25.190Z,4.50
2018-05-03T14:35:25.226Z,4.20
2018-05-03T14:36:25.254Z,4.40
2018-05-03T14:37:25.287Z,4.30
2018-05-03T14:38:25.323Z,4.10
2018-05-03T14:39:25.349Z,4.20
2018-05-03T14:40:25.385Z,4.20
2018-05-03T14:41:25.413Z,4.10
2018-05-03T14:42:25.461Z,4.70
2018-05-03T14:43:25.489Z,5.30
2018-05-03T14:44:25.515Z,4.90
2018-05-03T14:45:25.561Z,5.60
2018-05-03T14:46:25.582Z,5.50
2018-05-03T14:47:25.611Z,4.50
2018-05-03T14:48:25.664Z,4.90
2018-05-03T14:49:25.676Z,5.00
2018-05-03T14:50:25.723Z,4.70
2018-05-03T14:51:25.755Z,5.00
2018-05-03T14:52:25.779Z,4.90